createdAt,value
2022-12-06T00:00:14.700Z,6.400
2022-12-06T00:01:13.270Z,6.199
2022-12-06T00:02:13.555Z,6
2022-12-06T00:03:13.276Z,6.099
2022-12-06T00:05:13.391Z,5.900
2022-12-06T00:06:12.617Z,6
2022-12-06T00:07:12.656Z,6.099
2022-12-06T00:08:13.195Z,6
2022-12-06T00:09:12.733Z,6.400
2022-12-06T00:10:14.022Z,6.099
2022-12-06T00:11:13.203Z,6.199
2022-12-06T00:12:13.554Z,6
2022-12-06T00:13:13.509Z,5.800
2022-12-06T00:15:13.275Z,6.199
2022-12-06T00:16:13.056Z,6.300
2022-12-06T00:17:12.653Z,6.099
2022-12-06T00:18:31.773Z,6.199
2022-12-06T00:20:13.943Z,5.800
2022-12-06T00:21:13.391Z,5.900
2022-12-06T00:22:13.349Z,6
2022-12-06T00:23:13.065Z,5.900
2022-12-06T00:24:13.617Z,5.699
2022-12-06T00:25:13.282Z,5.800
2022-12-06T00:29:13.631Z,6
2022-12-06T00:30:36.135Z,5.5
2022-12-06T00:31:13.134Z,5.400
2022-12-06T00:32:19.037Z,5.599
2022-12-06T00:33:13.535Z,5.400
2022-12-06T00:34:13.501Z,5.5
2022-12-06T00:35:13.562Z,5.199
2022-12-06T00:36:12.702Z,5.099
2022-12-06T00:38:13.409Z,4.800
2022-12-06T00:39:13.681Z,5.300
2022-12-06T00:40:13.594Z,5.099
2022-12-06T00:41:13.281Z,5
2022-12-06T00:42:13.535Z,4.900
2022-12-06T00:43:13.510Z,4.800
2022-12-06T00:44:13.499Z,4.900
2022-12-06T00:45:14.208Z,4.599
2022-12-06T00:46:13.221Z,4.900
2022-12-06T00:47:13.295Z,5
2022-12-06T00:49:13.273Z,5.199
2022-12-06T00:51:12.790Z,5.099
2022-12-06T00:52:13.354Z,5.199
2022-12-06T00:53:13.131Z,5
2022-12-06T00:54:14.232Z,4.900
2022-12-06T00:55:13.884Z,5.199
2022-12-06T00:57:13.655Z,4.800
2022-12-06T00:58:14.390Z,4.599
2022-12-06T00:59:13.567Z,4.900
2022-12-06T01:01:14.920Z,4.699
2022-12-06T01:02:13.527Z,4.599
2022-12-06T01:03:14.099Z,4.400
2022-12-06T01:04:13.609Z,4.5
2022-12-06T01:05:13.905Z,4.400
2022-12-06T01:06:14.569Z,4.5
2022-12-06T01:07:13.061Z,4.400
2022-12-06T01:08:13.558Z,4.199
2022-12-06T01:09:13.116Z,4.300
2022-12-06T01:10:13.164Z,3.900
2022-12-06T01:11:13.852Z,4
2022-12-06T01:12:13.644Z,3.900
2022-12-06T01:13:13.447Z,4.400
2022-12-06T01:14:13.069Z,4
2022-12-06T01:15:14.494Z,3.799
2022-12-06T01:16:13.952Z,4
2022-12-06T01:17:13.295Z,4.099
2022-12-06T01:18:12.684Z,3.900
2022-12-06T01:19:13.549Z,4
2022-12-06T01:20:13.817Z,3.599
2022-12-06T01:21:13.411Z,3.799
2022-12-06T01:22:13.379Z,3.900
2022-12-06T01:23:12.783Z,3.700
2022-12-06T01:24:13.738Z,3.5
2022-12-06T01:25:13.674Z,3.599
2022-12-06T01:26:12.601Z,3.5
2022-12-06T01:27:13.961Z,3.400
2022-12-06T01:28:13.466Z,3.299
2022-12-06T01:29:12.887Z,3.5
2022-12-06T01:31:13.134Z,3.299
2022-12-06T01:32:13.101Z,3.400
2022-12-06T01:33:12.814Z,3.599
2022-12-06T01:34:12.721Z,3.5
2022-12-06T01:35:13.135Z,3.200
2022-12-06T01:36:13.049Z,3.5
2022-12-06T01:37:12.967Z,3.099
2022-12-06T01:38:13.517Z,3.5
2022-12-06T01:39:13.425Z,3.400
2022-12-06T01:40:12.461Z,3.299
2022-12-06T01:41:13.121Z,3.200
2022-12-06T01:42:13.560Z,3.400
2022-12-06T01:44:18.457Z,3
2022-12-06T01:45:14.144Z,3.099
2022-12-06T01:46:14.084Z,3.400
2022-12-06T01:47:13.814Z,3.200
2022-12-06T01:48:13.323Z,3.400
2022-12-06T01:49:14.203Z,3
2022-12-06T01:50:13.605Z,3.299
2022-12-06T01:53:12.896Z,2.900
2022-12-06T01:55:14.314Z,3
2022-12-06T01:56:13.002Z,3.099
2022-12-06T01:58:13.256Z,3.200
2022-12-06T02:00:14.988Z,2.900
2022-12-06T02:01:13.952Z,3
2022-12-06T02:02:13.244Z,2.900
2022-12-06T02:04:13.454Z,3
2022-12-06T02:05:13.054Z,2.799
2022-12-06T02:06:13.600Z,2.900
2022-12-06T02:07:13.278Z,2.799
2022-12-06T02:08:13.019Z,3
2022-12-06T02:09:12.894Z,2.799
2022-12-06T02:10:14.399Z,2.900
2022-12-06T02:11:12.946Z,2.700
2022-12-06T02:12:13.409Z,3
2022-12-06T02:14:13.549Z,3.099
2022-12-06T02:15:13.141Z,2.900
2022-12-06T02:17:21.031Z,3
2022-12-06T02:18:13.576Z,2.900
2022-12-06T02:19:12.962Z,3
2022-12-06T02:20:13.668Z,3.099
2022-12-06T02:21:13.269Z,2.900
2022-12-06T02:25:13.226Z,3.099
2022-12-06T02:27:13.614Z,3.200
2022-12-06T02:28:13.384Z,3
2022-12-06T02:29:26.784Z,3.299
2022-12-06T02:30:13.948Z,3
2022-12-06T02:31:13.885Z,2.799
2022-12-06T02:32:14.232Z,2.900
2022-12-06T02:33:13.119Z,3.299
2022-12-06T02:34:12.668Z,3.099
2022-12-06T02:35:13.797Z,3
2022-12-06T02:36:13.535Z,3.299
2022-12-06T02:37:13.299Z,3.5
2022-12-06T02:38:13.296Z,3.299
2022-12-06T02:40:13.147Z,3
2022-12-06T02:42:13.662Z,2.799
2022-12-06T02:43:13.423Z,3.200
2022-12-06T02:44:12.405Z,3.099
2022-12-06T02:45:13.671Z,3.299
2022-12-06T02:46:13.568Z,3.200
2022-12-06T02:47:13.437Z,3.400
2022-12-06T02:50:13.370Z,3.5
2022-12-06T02:51:12.996Z,3.400
2022-12-06T02:52:13.172Z,3.5
2022-12-06T02:53:12.972Z,3.299
2022-12-06T02:55:13.375Z,3.200
2022-12-06T02:58:13.892Z,3.400
2022-12-06T03:00:14.520Z,3.200
2022-12-06T03:01:13.424Z,3.5
2022-12-06T03:02:12.591Z,3.200
2022-12-06T03:03:12.743Z,3.299
2022-12-06T03:04:13.080Z,3.5
2022-12-06T03:05:14.622Z,3.400
2022-12-06T03:09:13.321Z,3.5
2022-12-06T03:10:13.262Z,3.200
2022-12-06T03:12:13.447Z,3.700
2022-12-06T03:13:13.460Z,3.599
2022-12-06T03:14:14.940Z,3.700
2022-12-06T03:15:14.535Z,3.400
2022-12-06T03:16:13.251Z,3.599
2022-12-06T03:17:12.805Z,3.700
2022-12-06T03:19:13.598Z,3.900
2022-12-06T03:20:13.129Z,3.799
2022-12-06T03:22:13.698Z,4
2022-12-06T03:24:13.014Z,3.900
2022-12-06T03:25:13.814Z,3.799
2022-12-06T03:28:13.506Z,4.099
2022-12-06T03:29:13.235Z,3.599
2022-12-06T03:30:12.989Z,3.799
2022-12-06T03:31:12.899Z,3.700
2022-12-06T03:32:13.607Z,3.799
2022-12-06T03:33:13.922Z,3.900
2022-12-06T03:36:13.336Z,3.599
2022-12-06T03:37:12.815Z,3.700
2022-12-06T03:38:13.367Z,4.099
2022-12-06T03:39:13.498Z,3.299
2022-12-06T03:40:13.485Z,3.5
2022-12-06T03:41:12.442Z,3.700
2022-12-06T03:43:13.064Z,3.599
2022-12-06T03:44:13.584Z,3.799
2022-12-06T03:45:14.084Z,4
2022-12-06T03:46:12.840Z,4.099
2022-12-06T03:47:15.929Z,3.700
2022-12-06T03:48:13.350Z,4
2022-12-06T03:49:13.236Z,3.900
2022-12-06T03:50:13.058Z,4.099
2022-12-06T03:51:13.015Z,4.199
2022-12-06T03:52:13.919Z,4.099
2022-12-06T03:53:13.964Z,3.900
2022-12-06T03:54:13.771Z,4.300
2022-12-06T03:55:13.761Z,4.099
2022-12-06T03:56:13.522Z,3.799
2022-12-06T03:57:13.392Z,3.700
2022-12-06T03:58:13.049Z,4
2022-12-06T03:59:13.307Z,3.700
2022-12-06T04:00:13.519Z,4
2022-12-06T04:01:13.367Z,3.799
2022-12-06T04:02:13.508Z,3.599
2022-12-06T04:03:13.318Z,3.5
2022-12-06T04:04:13.427Z,3.900
2022-12-06T04:05:13.174Z,4.099
2022-12-06T04:07:12.847Z,3.799
2022-12-06T04:08:13.422Z,3.5
2022-12-06T04:09:13.458Z,4
2022-12-06T04:10:12.484Z,3.799
2022-12-06T04:13:18.145Z,3.900
2022-12-06T04:14:12.988Z,3.700
2022-12-06T04:15:14.291Z,3.799
2022-12-06T04:16:13.103Z,3.5
2022-12-06T04:17:13.489Z,3.700
2022-12-06T04:18:13.197Z,3.400
2022-12-06T04:19:12.910Z,3.900
2022-12-06T04:20:13.255Z,3.5
2022-12-06T04:21:12.802Z,3.700
2022-12-06T04:22:12.982Z,3.599
2022-12-06T04:24:12.773Z,3.700
2022-12-06T04:27:13.345Z,3.900
2022-12-06T04:28:13.541Z,4
2022-12-06T04:29:13.389Z,3.900
2022-12-06T04:30:13.681Z,3.700
2022-12-06T04:31:18.565Z,3.900
2022-12-06T04:33:13.682Z,3.799
2022-12-06T04:35:13.507Z,4
2022-12-06T04:36:18.458Z,3.900
2022-12-06T04:37:13.785Z,4.300
2022-12-06T04:38:18.579Z,4.199
2022-12-06T04:39:17.613Z,3.900
2022-12-06T04:40:13.016Z,3.5
2022-12-06T04:41:13.665Z,4.5
2022-12-06T04:42:13.481Z,4.199
2022-12-06T04:43:12.915Z,4.400
2022-12-06T04:44:13.041Z,4.300
2022-12-06T04:46:13.420Z,4.599
2022-12-06T04:47:13.703Z,4.300
2022-12-06T04:48:13.531Z,4.599
2022-12-06T04:49:13.363Z,4.900
2022-12-06T04:53:13.896Z,4.800
2022-12-06T04:54:13.886Z,5
2022-12-06T04:55:13.664Z,4.900
2022-12-06T04:56:13.471Z,4.699
2022-12-06T04:57:13.070Z,4.5
2022-12-06T04:58:13.972Z,4.699
2022-12-06T04:59:13.511Z,4.400
2022-12-06T05:00:13.805Z,4.900
2022-12-06T05:01:13.780Z,4.400
2022-12-06T05:02:28.043Z,4.699
2022-12-06T05:03:13.707Z,4.900
2022-12-06T05:04:13.329Z,4.800
2022-12-06T05:07:13.862Z,4.900
2022-12-06T05:08:13.868Z,4.599
2022-12-06T05:09:13.412Z,5.099
2022-12-06T05:10:13.299Z,4.800
2022-12-06T05:11:13.399Z,5.099
2022-12-06T05:12:13.440Z,4.800
2022-12-06T05:13:13.261Z,4.900
2022-12-06T05:14:12.907Z,4.800
2022-12-06T05:15:15.990Z,5.199
2022-12-06T05:16:13.651Z,5
2022-12-06T05:17:14.061Z,5.099
2022-12-06T05:18:12.772Z,5.300
2022-12-06T05:19:13.935Z,5.400
2022-12-06T05:21:13.370Z,5
2022-12-06T05:23:13.223Z,5
2022-12-06T05:24:13.578Z,4.800
2022-12-06T05:25:13.489Z,5.099
2022-12-06T05:26:13.325Z,5.5
2022-12-06T05:27:13.675Z,5.599
2022-12-06T05:28:13.504Z,5.300
2022-12-06T05:29:13.412Z,5.199
2022-12-06T05:30:14.083Z,5.599
2022-12-06T05:31:13.349Z,5.199
2022-12-06T05:32:12.735Z,5.599
2022-12-06T05:33:13.860Z,6
2022-12-06T05:34:13.444Z,5.900
2022-12-06T05:35:14.426Z,5.699
2022-12-06T05:36:13.714Z,5.599
2022-12-06T05:37:13.902Z,5.800
2022-12-06T05:39:13.289Z,6
2022-12-06T05:40:13.310Z,5.800
2022-12-06T05:41:13.364Z,6
2022-12-06T05:42:22.075Z,5.199
2022-12-06T05:43:12.762Z,5.699
2022-12-06T05:46:14.266Z,6.199
2022-12-06T05:47:13.415Z,5.900
2022-12-06T05:50:13.754Z,5.800
2022-12-06T05:51:14.062Z,6.699
2022-12-06T05:52:13.408Z,6
2022-12-06T05:53:13.501Z,5.599
2022-12-06T05:54:13.795Z,5.400
2022-12-06T05:55:14.337Z,6
2022-12-06T05:56:13.073Z,5.699
2022-12-06T05:57:14.252Z,5.900
2022-12-06T05:58:13.403Z,5.400
2022-12-06T05:59:13.569Z,5.699
2022-12-06T06:00:14.628Z,5.400
2022-12-06T06:01:13.540Z,6
2022-12-06T06:02:13.070Z,5.599
2022-12-06T06:03:13.269Z,6
2022-12-06T06:04:13.189Z,5.699
2022-12-06T06:05:13.080Z,6.199
2022-12-06T06:06:13.612Z,6.300
2022-12-06T06:07:13.440Z,6.199
2022-12-06T06:08:13.599Z,5.800
2022-12-06T06:09:13.849Z,5.699
2022-12-06T06:10:13.802Z,5.599
2022-12-06T06:11:13.562Z,5.900
2022-12-06T06:12:13.246Z,5.800
2022-12-06T06:13:13.042Z,5.599
2022-12-06T06:14:13.734Z,5.900
2022-12-06T06:15:14.725Z,5.5
2022-12-06T06:17:12.315Z,5.599
2022-12-06T06:18:13.576Z,6.400
2022-12-06T06:19:13.483Z,5.800
2022-12-06T06:20:13.507Z,5.900
2022-12-06T06:21:12.624Z,5.599
2022-12-06T06:22:13.266Z,5.5
2022-12-06T06:23:13.767Z,5.800
2022-12-06T06:24:13.380Z,6.400
2022-12-06T06:25:13.957Z,5.099
2022-12-06T06:26:12.999Z,5.599
2022-12-06T06:27:13.899Z,5.800
2022-12-06T06:28:14.688Z,6.400
2022-12-06T06:29:14.429Z,5.300
2022-12-06T06:30:13.406Z,6.099
2022-12-06T06:32:14.297Z,5.5
2022-12-06T06:33:14.103Z,6
2022-12-06T06:34:13.369Z,5.900
2022-12-06T06:35:13.611Z,5.800
2022-12-06T06:36:14.007Z,6.199
2022-12-06T06:37:13.223Z,6.099
2022-12-06T06:38:14.206Z,6.199
2022-12-06T06:40:13.357Z,5.900
2022-12-06T06:42:13.230Z,5.699
2022-12-06T06:43:13.583Z,5.5
2022-12-06T06:44:13.383Z,5.900
2022-12-06T06:45:13.051Z,5.5
2022-12-06T06:46:13.279Z,5.800
2022-12-06T06:47:13.155Z,7.099
2022-12-06T06:48:14.268Z,6.400
2022-12-06T06:49:13.032Z,6
2022-12-06T06:50:13.062Z,7
2022-12-06T06:51:12.995Z,6.800
2022-12-06T06:52:13.874Z,6.599
2022-12-06T06:53:13.339Z,6.800
2022-12-06T06:54:12.759Z,7
2022-12-06T06:55:19.014Z,7.099
2022-12-06T06:56:13.846Z,6.800
2022-12-06T06:57:18.561Z,6.400
2022-12-06T06:58:13.158Z,6.699
2022-12-06T06:59:13.173Z,6.099
2022-12-06T07:00:14.111Z,5.900
2022-12-06T07:01:18.707Z,5.699
2022-12-06T07:02:13.965Z,7
2022-12-06T07:04:13.722Z,6.800
2022-12-06T07:05:18.896Z,7.199
2022-12-06T07:06:12.993Z,7.400
2022-12-06T07:07:20.608Z,7.5
2022-12-06T07:08:12.881Z,8
2022-12-06T07:09:21.715Z,7.900
2022-12-06T07:10:13.848Z,7.699
2022-12-06T07:11:13.893Z,9.100
2022-12-06T07:12:13.901Z,9.5
2022-12-06T07:13:13.088Z,9.699
2022-12-06T07:14:14.570Z,8.699
2022-12-06T07:15:14.452Z,8.399
2022-12-06T07:16:13.470Z,7.900
2022-12-06T07:17:14.135Z,7.099
2022-12-06T07:19:13.085Z,6.199
2022-12-06T07:20:14.310Z,7.199
2022-12-06T07:21:13.828Z,6.900
2022-12-06T07:23:13.224Z,6.699
2022-12-06T07:24:13.707Z,6.800
2022-12-06T07:26:13.267Z,6.599
2022-12-06T07:27:14.405Z,6.5
2022-12-06T07:28:13.128Z,6
2022-12-06T07:29:13.816Z,6.699
2022-12-06T07:30:17.000Z,6.5
2022-12-06T07:31:13.743Z,6.400
2022-12-06T07:32:13.419Z,6.5
2022-12-06T07:33:12.958Z,6.400
2022-12-06T07:34:14.441Z,6.099
2022-12-06T07:35:14.428Z,7.199
2022-12-06T07:36:14.340Z,8
2022-12-06T07:37:13.573Z,7.800
2022-12-06T07:38:13.740Z,8
2022-12-06T07:39:15.145Z,7.400
2022-12-06T07:40:13.369Z,7.599
2022-12-06T07:41:12.828Z,7.300
2022-12-06T07:42:13.995Z,7.400
2022-12-06T07:43:12.581Z,6.800
2022-12-06T07:45:35.477Z,7.099
2022-12-06T07:46:14.261Z,7
2022-12-06T07:47:13.776Z,7.099
2022-12-06T07:48:13.367Z,7.400
2022-12-06T07:50:17.875Z,6.800
2022-12-06T07:51:13.463Z,7.400
2022-12-06T07:52:13.557Z,7.800
2022-12-06T07:53:13.742Z,7.699
2022-12-06T07:54:13.899Z,7.300
2022-12-06T07:55:13.173Z,7.400
2022-12-06T07:56:13.449Z,7.800
2022-12-06T07:58:13.141Z,7.699
2022-12-06T07:59:13.591Z,7.599
2022-12-06T08:02:14.269Z,8
2022-12-06T08:03:13.842Z,8.699
2022-12-06T08:04:13.505Z,7.800
2022-12-06T08:05:13.113Z,8.600
2022-12-06T08:06:13.260Z,9.199
2022-12-06T08:07:13.522Z,9.399
2022-12-06T08:08:14.032Z,9.300
2022-12-06T08:09:12.857Z,8.899
2022-12-06T08:10:14.417Z,9.300
2022-12-06T08:12:13.618Z,8.800
2022-12-06T08:13:13.590Z,8
2022-12-06T08:15:13.813Z,8.399
2022-12-06T08:16:13.380Z,7.599
2022-12-06T08:17:14.170Z,7.900
2022-12-06T08:18:13.549Z,7.699
2022-12-06T08:19:13.796Z,7.599
2022-12-06T08:20:14.391Z,6.699
2022-12-06T08:21:13.339Z,6.900
2022-12-06T08:22:13.576Z,7
2022-12-06T08:23:14.144Z,7.199
2022-12-06T08:24:13.055Z,6.900
2022-12-06T08:25:13.119Z,7.800
2022-12-06T08:26:12.862Z,7.599
2022-12-06T08:27:13.506Z,7.199
2022-12-06T08:28:13.262Z,7.400
2022-12-06T08:29:13.604Z,6.800
2022-12-06T08:30:13.932Z,7.099
2022-12-06T08:31:13.772Z,7
2022-12-06T08:32:14.192Z,7.699
2022-12-06T08:33:13.918Z,7.199
2022-12-06T08:34:13.457Z,6.800
2022-12-06T08:35:14.210Z,7.800
2022-12-06T08:36:14.219Z,7.5
2022-12-06T08:37:13.857Z,7.099
2022-12-06T08:38:14.426Z,8
2022-12-06T08:39:13.868Z,7.400
2022-12-06T08:40:14.392Z,8
2022-12-06T08:41:13.779Z,7.099
2022-12-06T08:42:14.529Z,7.599
2022-12-06T08:43:13.800Z,7.400
2022-12-06T08:44:13.994Z,7.800
2022-12-06T08:45:13.283Z,7.5
2022-12-06T08:47:13.657Z,8.100
2022-12-06T08:48:14.082Z,7.099
2022-12-06T08:49:13.765Z,7.599
2022-12-06T08:50:14.172Z,7.5
2022-12-06T08:51:13.735Z,7.800
2022-12-06T08:52:13.562Z,8.600
2022-12-06T08:53:13.821Z,9.100
2022-12-06T08:54:14.099Z,10.39
2022-12-06T08:55:13.272Z,9.699
2022-12-06T08:56:13.342Z,8.399
2022-12-06T08:57:13.713Z,9
2022-12-06T08:58:13.703Z,8.800
2022-12-06T09:00:14.476Z,8.300
2022-12-06T09:01:14.530Z,8
2022-12-06T09:02:13.910Z,8.399
2022-12-06T09:03:13.159Z,8
2022-12-06T09:04:13.140Z,8.199
2022-12-06T09:05:13.654Z,7.5
2022-12-06T09:07:14.624Z,7.800
2022-12-06T09:08:13.931Z,7.699
2022-12-06T09:09:13.697Z,8
2022-12-06T09:10:13.811Z,7.199
2022-12-06T09:11:14.148Z,7.800
2022-12-06T09:12:13.724Z,7.599
2022-12-06T09:13:13.137Z,7.699
2022-12-06T09:14:19.572Z,8.199
2022-12-06T09:15:14.059Z,7.699
2022-12-06T09:16:13.256Z,7.5
2022-12-06T09:17:13.691Z,7.400
2022-12-06T09:18:14.244Z,7.099
2022-12-06T09:20:14.129Z,7.699
2022-12-06T09:21:13.159Z,8
2022-12-06T09:22:13.995Z,7.800
2022-12-06T09:23:12.878Z,7.699
2022-12-06T09:24:14.145Z,7.599
2022-12-06T09:25:13.688Z,8
2022-12-06T09:26:13.733Z,8.300
2022-12-06T09:27:13.308Z,8.199
2022-12-06T09:28:14.371Z,7.400
2022-12-06T09:29:14.473Z,8
2022-12-06T09:30:18.996Z,7.400
2022-12-06T09:31:13.110Z,7.699
2022-12-06T09:32:21.200Z,8
2022-12-06T09:33:13.337Z,8.100
2022-12-06T09:36:13.722Z,8.699
2022-12-06T09:37:14.237Z,8.199
2022-12-06T09:38:13.591Z,8.300
2022-12-06T09:39:14.206Z,8
2022-12-06T09:40:28.006Z,8.600
2022-12-06T09:41:13.971Z,8
2022-12-06T09:42:13.023Z,8.300
2022-12-06T09:43:13.298Z,7.900
2022-12-06T09:44:13.770Z,8.5
2022-12-06T09:45:14.566Z,8.899
2022-12-06T09:46:13.529Z,7.900
2022-12-06T09:47:13.906Z,8.100
2022-12-06T09:48:13.902Z,8
2022-12-06T09:50:28.088Z,7.5
2022-12-06T09:51:13.472Z,7.699
2022-12-06T09:52:13.936Z,7.900
2022-12-06T09:53:13.175Z,7.800
2022-12-06T09:55:14.763Z,8.300
2022-12-06T09:56:13.976Z,8.100
2022-12-06T09:57:14.098Z,8.199
2022-12-06T09:58:13.276Z,8.5
2022-12-06T09:59:14.264Z,7.900
2022-12-06T10:00:17.739Z,7.699
2022-12-06T10:01:14.093Z,8.199
2022-12-06T10:02:14.072Z,7.900
2022-12-06T10:03:13.661Z,8.199
2022-12-06T10:04:12.922Z,7.699
2022-12-06T10:05:14.259Z,7.599
2022-12-06T10:06:13.932Z,8.800
2022-12-06T10:07:13.036Z,9.199
2022-12-06T10:08:14.094Z,7.800
2022-12-06T10:09:13.599Z,8.399
2022-12-06T10:10:14.187Z,9.199
2022-12-06T10:11:13.551Z,8.600
2022-12-06T10:12:13.543Z,9.5
2022-12-06T10:13:13.767Z,9
2022-12-06T10:14:13.793Z,8.699
2022-12-06T10:15:14.197Z,8.899
2022-12-06T10:16:13.826Z,8.800
2022-12-06T10:17:13.074Z,8.899
2022-12-06T10:18:14.013Z,8.300
2022-12-06T10:19:12.995Z,8.800
2022-12-06T10:20:14.249Z,9.399
2022-12-06T10:21:14.169Z,8.300
2022-12-06T10:22:13.405Z,9.199
2022-12-06T10:23:13.395Z,9.5
2022-12-06T10:24:13.979Z,9.600
2022-12-06T10:25:13.632Z,9.199
2022-12-06T10:26:13.925Z,9.800
2022-12-06T10:27:14.096Z,10.19
2022-12-06T10:28:12.990Z,9.800
2022-12-06T10:29:13.456Z,9.399
2022-12-06T10:30:14.228Z,9.300
2022-12-06T10:31:13.064Z,9
2022-12-06T10:32:14.123Z,8.899
2022-12-06T10:33:14.150Z,9.199
2022-12-06T10:34:13.747Z,9.399
2022-12-06T10:35:14.097Z,9.5
2022-12-06T10:39:13.155Z,9.600
2022-12-06T10:40:13.403Z,9.399
2022-12-06T10:41:13.843Z,9.5
2022-12-06T10:42:14.229Z,10
2022-12-06T10:43:14.200Z,9.600
2022-12-06T10:45:14.566Z,10.10
2022-12-06T10:46:13.647Z,10
2022-12-06T10:47:13.564Z,9.800
2022-12-06T10:48:13.569Z,9.699
2022-12-06T10:49:13.688Z,9.300
2022-12-06T10:50:13.021Z,9.699
2022-12-06T10:51:13.097Z,9.5
2022-12-06T10:52:13.663Z,8.600
2022-12-06T10:53:13.582Z,10.30
2022-12-06T10:54:12.508Z,10
2022-12-06T10:55:13.175Z,10.10
2022-12-06T10:56:12.757Z,9.399
2022-12-06T10:57:13.103Z,9
2022-12-06T10:58:13.684Z,9.899
2022-12-06T10:59:13.111Z,10
2022-12-06T11:00:15.871Z,10.10
2022-12-06T11:01:13.261Z,9.399
2022-12-06T11:02:13.579Z,8.899
2022-12-06T11:03:13.948Z,9.199
2022-12-06T11:05:14.152Z,8.399
2022-12-06T11:06:13.699Z,8.5
2022-12-06T11:07:13.173Z,8.300
2022-12-06T11:10:13.477Z,8.5
2022-12-06T11:11:13.083Z,8
2022-12-06T11:12:12.989Z,8.600
2022-12-06T11:13:13.136Z,8.5
2022-12-06T11:14:13.491Z,8.399
2022-12-06T11:15:14.296Z,8.800
2022-12-06T11:16:13.618Z,8.300
2022-12-06T11:17:13.708Z,8.5
2022-12-06T11:18:13.991Z,8.899
2022-12-06T11:19:13.786Z,8.600
2022-12-06T11:21:13.397Z,8.699
2022-12-06T11:22:13.442Z,8.100
2022-12-06T11:23:13.804Z,8
2022-12-06T11:24:14.161Z,7.900
2022-12-06T11:25:13.692Z,7.699
2022-12-06T11:26:14.102Z,8.100
2022-12-06T11:28:13.566Z,8.300
2022-12-06T11:29:13.976Z,7.300
2022-12-06T11:30:16.906Z,7.599
2022-12-06T11:31:13.478Z,7.400
2022-12-06T11:32:14.047Z,7.699
2022-12-06T11:33:13.831Z,7.5
2022-12-06T11:34:13.599Z,7.599
2022-12-06T11:35:13.914Z,7.199
2022-12-06T11:37:14.500Z,7.699
2022-12-06T11:38:13.952Z,7.099
2022-12-06T11:39:13.869Z,7.400
2022-12-06T11:40:13.422Z,7.099
2022-12-06T11:41:14.287Z,7.300
2022-12-06T11:42:13.647Z,7.400
2022-12-06T11:43:14.096Z,7.900
2022-12-06T11:44:13.260Z,7.400
2022-12-06T11:45:14.203Z,7.300
2022-12-06T11:46:13.899Z,7.199
2022-12-06T11:47:14.716Z,6.599
2022-12-06T11:48:14.294Z,7
2022-12-06T11:49:19.905Z,6.900
2022-12-06T11:50:16.934Z,6.699
2022-12-06T11:51:14.179Z,7.099
2022-12-06T11:52:12.882Z,7.199
2022-12-06T11:53:13.583Z,7.099
2022-12-06T11:54:14.215Z,7.5
2022-12-06T11:55:14.527Z,7
2022-12-06T11:56:13.731Z,6.599
2022-12-06T11:57:18.011Z,7.300
2022-12-06T11:58:13.524Z,7.599
2022-12-06T12:00:15.209Z,8.100
2022-12-06T12:01:20.970Z,8.399
2022-12-06T12:02:19.430Z,7.599
2022-12-06T12:03:13.612Z,7.699
2022-12-06T12:04:13.385Z,8.199
2022-12-06T12:05:14.868Z,8.800
2022-12-06T12:07:28.672Z,8.600
2022-12-06T12:08:14.247Z,8.699
2022-12-06T12:09:13.900Z,8.800
2022-12-06T12:10:13.311Z,8.399
2022-12-06T12:12:13.219Z,8.699
2022-12-06T12:13:27.711Z,9.199
2022-12-06T12:14:13.689Z,8.199
2022-12-06T12:15:28.664Z,8.800
2022-12-06T12:16:14.291Z,8.100
2022-12-06T12:17:27.840Z,8.600
2022-12-06T12:18:13.965Z,8
2022-12-06T12:19:13.067Z,8.399
2022-12-06T12:20:13.894Z,7.800
2022-12-06T12:22:13.554Z,8.199
2022-12-06T12:23:13.361Z,8.699
2022-12-06T12:24:14.339Z,8
2022-12-06T12:25:33.350Z,8.699
2022-12-06T12:26:13.702Z,8.5
2022-12-06T12:27:21.173Z,9.199
2022-12-06T12:28:13.672Z,10
2022-12-06T12:29:13.643Z,9.199
2022-12-06T12:30:13.689Z,9.699
2022-12-06T12:31:14.113Z,9.899
2022-12-06T12:32:13.558Z,9.800
2022-12-06T12:33:13.253Z,10
2022-12-06T12:34:13.352Z,8.899
2022-12-06T12:35:13.462Z,9.300
2022-12-06T12:37:13.993Z,9.5
2022-12-06T12:38:13.587Z,9.800
2022-12-06T12:39:14.052Z,10.10
2022-12-06T12:40:14.110Z,10.39
2022-12-06T12:41:13.641Z,10.60
2022-12-06T12:42:13.630Z,10.10
2022-12-06T12:43:14.202Z,10.69
2022-12-06T12:44:36.439Z,9.199
2022-12-06T12:45:14.322Z,10.80
2022-12-06T12:46:13.583Z,9.5
2022-12-06T12:47:14.391Z,10
2022-12-06T12:48:14.093Z,10.30
2022-12-06T12:49:13.872Z,9.800
2022-12-06T12:50:14.585Z,10.60
2022-12-06T12:51:13.182Z,10.19
2022-12-06T12:52:13.847Z,10
2022-12-06T12:54:13.585Z,10.5
2022-12-06T12:55:14.511Z,9.600
2022-12-06T12:56:13.926Z,9.5
2022-12-06T12:57:13.581Z,9.399
2022-12-06T12:58:13.100Z,10.69
2022-12-06T12:59:14.070Z,9.699
2022-12-06T13:01:13.438Z,10.39
2022-12-06T13:02:14.052Z,9.899
2022-12-06T13:03:34.806Z,9.600
2022-12-06T13:04:14.177Z,9.699
2022-12-06T13:06:13.091Z,9.100
2022-12-06T13:07:14.086Z,9
2022-12-06T13:08:13.578Z,8.800
2022-12-06T13:09:13.733Z,8.600
2022-12-06T13:10:13.113Z,8.300
2022-12-06T13:11:13.395Z,7.900
2022-12-06T13:12:13.434Z,7.400
2022-12-06T13:13:13.989Z,7.5
2022-12-06T13:14:13.243Z,6.900
2022-12-06T13:15:13.578Z,7
2022-12-06T13:16:14.264Z,6.300
2022-12-06T13:17:14.436Z,6.5
2022-12-06T13:18:14.184Z,6.800
2022-12-06T13:20:14.618Z,6.300
2022-12-06T13:21:15.238Z,5.800
2022-12-06T13:22:14.041Z,5.900
2022-12-06T13:23:13.743Z,5.5
2022-12-06T13:24:13.403Z,6.099
2022-12-06T13:25:14.051Z,5.300
2022-12-06T13:26:13.108Z,5.599
2022-12-06T13:27:14.283Z,5.199
2022-12-06T13:28:14.134Z,5.400
2022-12-06T13:30:14.252Z,5.199
2022-12-06T13:31:13.710Z,5.099
2022-12-06T13:32:13.616Z,4.800
2022-12-06T13:33:17.749Z,4.900
2022-12-06T13:34:13.326Z,4.800
2022-12-06T13:35:14.383Z,5.199
2022-12-06T13:36:13.762Z,5.099
2022-12-06T13:37:13.950Z,7.199
2022-12-06T13:38:13.820Z,6.599
2022-12-06T13:39:14.296Z,6.300
2022-12-06T13:40:14.365Z,6
2022-12-06T13:41:13.902Z,6.199
2022-12-06T13:42:12.972Z,5.800
2022-12-06T13:43:13.529Z,6.599
2022-12-06T13:44:14.117Z,6.5
2022-12-06T13:45:13.808Z,6.599
2022-12-06T13:46:14.362Z,7.400
2022-12-06T13:47:14.399Z,7
2022-12-06T13:48:14.619Z,7.099
2022-12-06T13:50:14.158Z,7.199
2022-12-06T13:51:13.125Z,6.900
2022-12-06T13:52:13.623Z,9.5
2022-12-06T13:53:13.588Z,9.800
2022-12-06T13:54:13.371Z,9.199
2022-12-06T13:55:17.308Z,9.100
2022-12-06T13:56:13.713Z,8.600
2022-12-06T13:57:14.188Z,8.699
2022-12-06T13:58:13.881Z,8.199
2022-12-06T13:59:14.124Z,8.600
2022-12-06T14:00:14.424Z,7.900
2022-12-06T14:01:13.836Z,8.600
2022-12-06T14:02:13.251Z,9.199
2022-12-06T14:03:13.772Z,9.100
2022-12-06T14:05:14.098Z,8.100
2022-12-06T14:06:15.937Z,8.199
2022-12-06T14:08:13.389Z,7.699
2022-12-06T14:09:14.503Z,7.5
2022-12-06T14:10:14.308Z,7.800
2022-12-06T14:11:14.444Z,7.199
2022-12-06T14:12:14.268Z,7.300
2022-12-06T14:13:13.288Z,6.800
2022-12-06T14:15:13.820Z,7.400
2022-12-06T14:16:13.048Z,7.5
2022-12-06T14:17:32.032Z,6.300
2022-12-06T14:18:13.785Z,6.599
2022-12-06T14:19:13.158Z,6.800
2022-12-06T14:21:13.091Z,6.5
2022-12-06T14:22:13.841Z,6.400
2022-12-06T14:23:13.243Z,6.800
2022-12-06T14:24:13.445Z,6.199
2022-12-06T14:25:14.760Z,6.400
2022-12-06T14:26:13.504Z,6.5
2022-12-06T14:27:14.234Z,6.800
2022-12-06T14:28:13.650Z,6
2022-12-06T14:29:13.810Z,6.199
2022-12-06T14:30:13.717Z,6.599
2022-12-06T14:31:13.837Z,6.400
2022-12-06T14:33:13.122Z,6.300
2022-12-06T14:34:27.445Z,6.400
2022-12-06T14:35:14.089Z,5.900
2022-12-06T14:36:17.104Z,6.199
2022-12-06T14:37:12.725Z,5.900
2022-12-06T14:38:13.107Z,6.599
2022-12-06T14:39:13.477Z,6
2022-12-06T14:40:44.420Z,5.800
2022-12-06T14:41:12.714Z,6.099
2022-12-06T14:43:13.871Z,6.199
2022-12-06T14:44:13.649Z,6.300
2022-12-06T14:45:13.876Z,6.900
2022-12-06T14:46:32.841Z,6.099
2022-12-06T14:47:13.761Z,7.099
2022-12-06T14:48:33.599Z,6.699
2022-12-06T14:49:14.438Z,6.300
2022-12-06T14:50:13.809Z,5.699
2022-12-06T14:51:13.557Z,6.800
2022-12-06T14:53:14.228Z,7.5
2022-12-06T14:54:13.396Z,7.300
2022-12-06T14:55:14.633Z,6.900
2022-12-06T14:56:14.765Z,7.699
2022-12-06T14:57:13.535Z,7.400
2022-12-06T14:58:13.906Z,8.399
2022-12-06T14:59:14.176Z,8
2022-12-06T15:00:25.832Z,7.900
2022-12-06T15:01:13.777Z,8.199
2022-12-06T15:02:14.077Z,8.100
2022-12-06T15:03:14.287Z,8
2022-12-06T15:06:13.539Z,7.599
2022-12-06T15:07:14.201Z,7.900
2022-12-06T15:08:12.714Z,7.800